Time;durP1;ratioP1;P1;durP2;ratioP2;P2;SDS_P1;SDS_P2;PMS_P1;PMS_P2;Temp;Humidity;BMP_temperature;BMP_pressure;BME280_temperature;BME280_humidity;BME280_pressure;Samples;Min_cycle;Max_cycle;Signal;HPM_P1;HPM_P2
2021/05/20 00:01:04;;;;;;;11.50;7.18;;;12.90;97.90;;;;;;5010869;28;20080;-72
2021/05/20 00:03:29;;;;;;;9.05;7.10;;;12.90;98.00;;;;;;5009583;28;20038;-71
2021/05/20 00:19:23;;;;;;;14.68;7.57;;;12.70;98.30;;;;;;5009740;28;20064;-71
2021/05/20 00:21:49;;;;;;;10.80;7.93;;;12.70;98.40;;;;;;5010547;28;20383;-71
2021/05/20 00:24:15;;;;;;;11.93;8.38;;;12.80;98.30;;;;;;5009596;28;20137;-70
2021/05/20 00:26:40;;;;;;;13.35;8.10;;;12.80;98.20;;;;;;5010733;28;20112;-71
2021/05/20 00:29:06;;;;;;;11.57;8.00;;;12.80;98.20;;;;;;5010368;28;20137;-71
2021/05/20 00:31:32;;;;;;;11.73;8.10;;;12.80;98.20;;;;;;5009107;28;20053;-71
2021/05/20 00:33:57;;;;;;;13.00;8.18;;;12.70;98.30;;;;;;5010110;28;20041;-71
2021/05/20 00:36:23;;;;;;;11.10;7.70;;;12.60;98.40;;;;;;5010093;28;20407;-71
2021/05/20 00:38:49;;;;;;;11.63;7.63;;;12.70;98.40;;;;;;5010519;28;20032;-71
2021/05/20 00:41:14;;;;;;;10.93;8.07;;;12.60;98.40;;;;;;5009724;28;20045;-71
2021/05/20 00:43:41;;;;;;;12.32;7.85;;;12.60;98.50;;;;;;5009933;28;20034;-72
2021/05/20 00:46:06;;;;;;;11.48;8.30;;;12.60;98.50;;;;;;5009065;28;20419;-71
2021/05/20 00:48:32;;;;;;;12.68;8.57;;;12.60;98.40;;;;;;5010223;28;20037;-71
2021/05/20 00:50:58;;;;;;;11.98;8.48;;;12.60;98.40;;;;;;5009244;28;20026;-71
2021/05/20 00:53:24;;;;;;;14.55;8.55;;;12.50;98.50;;;;;;5011500;28;20029;-71
2021/05/20 00:55:50;;;;;;;12.65;8.65;;;12.50;98.50;;;;;;5009831;28;20133;-69
2021/05/20 00:58:17;;;;;;;11.18;8.70;;;12.50;98.50;;;;;;5009681;28;20091;-71
2021/05/20 01:00:43;;;;;;;12.25;7.95;;;12.40;98.40;;;;;;5009600;28;20037;-71
2021/05/20 01:03:09;;;;;;;14.55;9.18;;;12.50;98.60;;;;;;5009827;28;20017;-72
2021/05/20 01:05:34;;;;;;;12.63;8.95;;;12.40;98.60;;;;;;5011084;28;20343;-72
2021/05/20 01:08:00;;;;;;;14.45;9.45;;;12.30;98.70;;;;;;5008533;28;20041;-71
2021/05/20 01:10:25;;;;;;;12.98;9.15;;;12.30;98.80;;;;;;5009402;28;20034;-70
2021/05/20 01:12:51;;;;;;;14.63;9.15;;;12.30;98.70;;;;;;5009410;28;20482;-71
2021/05/20 01:15:19;;;;;;;13.60;8.98;;;12.30;98.70;;;;;;5009697;28;20456;-71
2021/05/20 01:17:51;;;;;;;13.05;9.35;;;12.20;98.70;;;;;;5011628;28;20535;-71
2021/05/20 01:20:24;;;;;;;15.07;9.27;;;12.20;98.80;;;;;;5009654;28;20426;-71
2021/05/20 01:22:51;;;;;;;14.98;9.00;;;12.30;98.80;;;;;;5009272;28;20042;-71
2021/05/20 01:25:17;;;;;;;17.75;9.75;;;12.30;98.70;;;;;;5009200;28;20054;-70
2021/05/20 01:27:44;;;;;;;16.30;9.90;;;12.30;98.80;;;;;;5009296;28;20069;-71
2021/05/20 01:30:11;;;;;;;16.40;9.67;;;12.30;98.80;;;;;;5009274;28;20029;-71
2021/05/20 01:32:37;;;;;;;18.10;9.07;;;12.30;98.70;;;;;;5010758;28;20271;-71
2021/05/20 01:35:05;;;;;;;17.02;10.07;;;12.30;98.80;;;;;;5007281;28;20038;-71
2021/05/20 01:37:32;;;;;;;14.40;10.45;;;12.30;98.80;;;;;;4989492;28;20034;-71
2021/05/20 01:39:58;;;;;;;19.10;10.20;;;12.10;98.90;;;;;;4989750;28;20061;-71
2021/05/20 01:42:23;;;;;;;16.27;11.02;;;12.20;98.90;;;;;;4989722;28;20031;-71
2021/05/20 01:44:49;;;;;;;15.70;10.32;;;12.20;98.90;;;;;;4991250;28;20678;-71
2021/05/20 01:47:15;;;;;;;16.20;9.93;;;12.10;98.90;;;;;;4989733;28;20049;-71
2021/05/20 01:49:40;;;;;;;13.68;10.25;;;12.10;99.10;;;;;;4989773;28;20452;-71
2021/05/20 01:52:06;;;;;;;14.88;10.52;;;12.10;99.00;;;;;;5004984;28;20026;-71
2021/05/20 01:54:32;;;;;;;15.75;11.07;;;12.10;99.00;;;;;;4989198;28;20046;-72
2021/05/20 01:56:57;;;;;;;16.45;11.13;;;12.10;98.90;;;;;;5004750;28;20037;-71
2021/05/20 01:59:23;;;;;;;17.17;11.48;;;12.00;99.00;;;;;;4991110;28;20053;-70
2021/05/20 02:01:49;;;;;;;21.67;10.43;;;12.00;99.10;;;;;;5004794;28;20084;-71
2021/05/20 02:04:14;;;;;;;17.23;11.55;;;11.90;99.10;;;;;;4988247;28;20046;-72
2021/05/20 02:06:40;;;;;;;16.00;10.73;;;11.90;99.20;;;;;;5004817;28;20460;-70
2021/05/20 02:09:06;;;;;;;16.55;11.10;;;11.80;99.10;;;;;;4989572;28;20037;-71
2021/05/20 02:11:32;;;;;;;15.45;10.98;;;11.80;99.40;;;;;;4991972;28;20033;-70
2021/05/20 02:13:58;;;;;;;18.13;11.50;;;11.80;99.30;;;;;;4993091;28;20339;-70
2021/05/20 02:16:24;;;;;;;16.85;11.52;;;11.70;99.30;;;;;;4992863;28;20031;-70
2021/05/20 02:18:49;;;;;;;21.17;11.18;;;11.70;99.40;;;;;;4992998;28;20034;-71
2021/05/20 02:21:15;;;;;;;17.65;11.07;;;11.70;99.30;;;;;;5008313;28;20038;-71
2021/05/20 02:23:41;;;;;;;18.33;11.60;;;11.70;99.30;;;;;;4994446;28;20042;-71
2021/05/20 02:26:06;;;;;;;17.00;11.00;;;11.60;99.50;;;;;;5008120;28;20058;-71
2021/05/20 02:28:32;;;;;;;19.67;11.77;;;11.60;99.50;;;;;;4992846;28;20057;-71
2021/05/20 02:30:58;;;;;;;16.58;10.60;;;11.70;99.40;;;;;;5008031;28;20099;-72
2021/05/20 02:33:23;;;;;;;18.23;11.45;;;11.60;99.40;;;;;;4992857;28;20053;-71
2021/05/20 02:35:49;;;;;;;16.35;11.20;;;11.60;99.60;;;;;;5009498;28;20042;-71
2021/05/20 02:38:15;;;;;;;18.63;11.95;;;11.60;99.50;;;;;;4992737;28;20530;-71
2021/05/20 02:40:41;;;;;;;18.52;11.43;;;11.60;99.50;;;;;;4992403;28;20361;-72
2021/05/20 02:43:06;;;;;;;17.15;10.82;;;11.50;99.60;;;;;;4992583;28;20108;-71
2021/05/20 02:45:32;;;;;;;17.20;11.77;;;11.40;99.90;;;;;;4992397;28;20058;-71
2021/05/20 02:47:58;;;;;;;19.73;12.57;;;11.40;99.80;;;;;;4992653;28;20029;-71
2021/05/20 02:50:25;;;;;;;20.15;11.18;;;11.40;99.90;;;;;;4994043;28;20086;-72
2021/05/20 02:52:51;;;;;;;17.42;11.52;;;11.30;99.90;;;;;;5007831;28;20076;-71
2021/05/20 02:55:22;;;;;;;19.23;11.93;;;11.30;99.90;;;;;;4992369;28;20031;-71
2021/05/20 02:57:50;;;;;;;18.00;12.38;;;11.30;99.90;;;;;;4992647;28;20229;-72
2021/05/20 03:00:20;;;;;;;16.60;10.93;;;11.20;99.90;;;;;;4992289;28;20026;-71
2021/05/20 03:02:49;;;;;;;16.52;11.70;;;11.30;99.90;;;;;;4994124;28;20061;-72
2021/05/20 03:05:16;;;;;;;17.58;11.48;;;11.30;99.90;;;;;;4992116;28;20042;-71
2021/05/20 03:07:42;;;;;;;20.45;12.23;;;11.30;99.90;;;;;;4992081;28;20041;-72
2021/05/20 03:10:08;;;;;;;21.48;12.98;;;11.20;99.90;;;;;;4991964;28;20030;-71
2021/05/20 03:12:34;;;;;;;18.08;11.98;;;11.30;99.90;;;;;;4991378;28;20022;-72
2021/05/20 03:15:00;;;;;;;17.65;12.05;;;11.30;99.90;;;;;;5007338;28;20026;-72
2021/05/20 03:17:26;;;;;;;17.55;12.13;;;11.30;99.90;;;;;;4993496;28;20026;-71
2021/05/20 03:19:52;;;;;;;17.05;11.75;;;11.30;99.80;;;;;;4991985;28;20035;-71
2021/05/20 03:22:18;;;;;;;17.63;12.63;;;11.30;99.80;;;;;;4991782;28;20045;-71
2021/05/20 03:24:44;;;;;;;17.92;11.45;;;11.40;99.80;;;;;;4991489;28;20104;-72
2021/05/20 03:27:10;;;;;;;20.52;11.65;;;11.30;99.80;;;;;;4991776;28;20023;-72
2021/05/20 03:29:35;;;;;;;17.60;11.70;;;11.20;99.80;;;;;;4993630;28;20026;-72
2021/05/20 03:32:01;;;;;;;21.48;12.30;;;11.30;99.90;;;;;;4991625;28;20425;-72
2021/05/20 03:34:27;;;;;;;19.13;11.32;;;11.30;99.80;;;;;;4991401;28;20034;-72
2021/05/20 03:36:52;;;;;;;15.38;11.65;;;11.30;99.80;;;;;;4991572;28;20035;-72
2021/05/20 03:39:18;;;;;;;17.73;11.35;;;11.30;99.80;;;;;;4991537;28;20039;-72
2021/05/20 03:41:44;;;;;;;15.35;11.27;;;11.50;99.80;;;;;;4993091;28;20437;-72
2021/05/20 03:44:09;;;;;;;17.48;11.60;;;11.50;99.60;;;;;;4991285;28;20038;-71
2021/05/20 03:46:35;;;;;;;21.27;11.35;;;11.50;99.40;;;;;;4991436;28;20031;-71
2021/05/20 03:49:01;;;;;;;16.05;10.82;;;11.50;99.30;;;;;;4991058;28;20030;-72
2021/05/20 03:51:26;;;;;;;16.52;10.77;;;11.40;99.50;;;;;;5006619;28;20031;-71
2021/05/20 03:53:52;;;;;;;14.40;10.55;;;11.30;99.60;;;;;;5008004;28;20027;-71
2021/05/20 03:56:18;;;;;;;20.05;11.60;;;11.40;99.60;;;;;;5006385;28;20069;-71
2021/05/20 03:58:43;;;;;;;17.67;10.45;;;11.30;99.70;;;;;;4991164;28;20035;-71
2021/05/20 04:01:09;;;;;;;14.65;10.18;;;11.30;99.70;;;;;;4991106;28;20110;-71
2021/05/20 04:03:34;;;;;;;15.23;10.73;;;11.30;99.80;;;;;;5006453;28;20495;-71
2021/05/20 04:06:04;;;;;;;17.48;11.25;;;11.10;99.90;;;;;;4991129;28;20041;-71
2021/05/20 04:08:30;;;;;;;14.07;10.98;;;11.20;99.90;;;;;;4992517;28;20458;-72
2021/05/20 04:10:56;;;;;;;14.15;10.20;;;11.20;99.90;;;;;;4991310;28;20038;-71
2021/05/20 04:13:36;;;;;;;14.63;10.35;;;11.20;99.90;;;;;;4990819;28;20043;-72
2021/05/20 04:16:03;;;;;;;16.00;10.77;;;11.20;99.90;;;;;;4990761;28;20050;-72
2021/05/20 04:18:28;;;;;;;17.80;11.52;;;11.30;99.90;;;;;;4990604;28;20400;-71
2021/05/20 04:20:55;;;;;;;16.15;11.13;;;11.30;99.80;;;;;;4992507;28;20061;-72
2021/05/20 04:23:21;;;;;;;15.50;10.70;;;11.40;99.80;;;;;;4991066;28;20038;-73
2021/05/20 04:25:48;;;;;;;16.48;10.88;;;11.40;99.70;;;;;;4990399;28;20437;-71
2021/05/20 04:28:15;;;;;;;18.95;11.80;;;11.50;99.80;;;;;;4990746;28;20155;-72
2021/05/20 04:30:41;;;;;;;15.10;10.70;;;11.50;99.70;;;;;;4990749;28;20112;-70
2021/05/20 04:33:07;;;;;;;23.95;12.05;;;11.30;99.90;;;;;;5006038;28;20510;-71
2021/05/20 04:35:34;;;;;;;15.43;11.13;;;11.40;99.90;;;;;;4991484;28;20448;-72
2021/05/20 04:38:00;;;;;;;22.27;11.27;;;11.40;99.80;;;;;;4990527;28;20110;-71
2021/05/20 04:40:26;;;;;;;15.40;10.55;;;11.50;99.90;;;;;;4989694;28;20041;-72
2021/05/20 04:42:53;;;;;;;16.35;11.15;;;11.50;99.80;;;;;;5005593;28;20361;-72
2021/05/20 04:45:18;;;;;;;17.63;10.73;;;11.60;99.70;;;;;;4990391;28;20104;-71
2021/05/20 04:47:45;;;;;;;17.25;10.75;;;11.60;99.70;;;;;;4991974;28;20030;-72
2021/05/20 04:50:12;;;;;;;16.45;10.90;;;11.60;99.60;;;;;;5005509;28;20097;-72
2021/05/20 04:52:39;;;;;;;20.23;11.20;;;11.70;99.60;;;;;;4990223;28;20053;-72
2021/05/20 04:55:05;;;;;;;15.75;10.57;;;11.80;99.50;;;;;;4989955;28;20314;-71
2021/05/20 04:57:31;;;;;;;16.77;10.57;;;11.90;99.40;;;;;;4990026;28;20038;-71
2021/05/20 04:59:56;;;;;;;22.33;10.80;;;11.90;99.40;;;;;;4990149;28;20401;-71
2021/05/20 05:02:22;;;;;;;18.63;10.63;;;11.90;99.40;;;;;;4991500;28;20038;-71
2021/05/20 05:04:48;;;;;;;19.35;11.55;;;11.90;99.40;;;;;;4990136;28;20038;-70
2021/05/20 05:07:13;;;;;;;17.42;10.13;;;11.90;99.30;;;;;;4990067;28;20460;-71
2021/05/20 05:09:39;;;;;;;19.33;10.20;;;11.90;99.20;;;;;;5005151;28;20352;-72
2021/05/20 05:12:05;;;;;;;17.60;10.40;;;11.90;99.20;;;;;;4989699;28;20026;-72
2021/05/20 05:14:30;;;;;;;17.63;10.43;;;11.90;99.10;;;;;;5006779;28;20025;-72
2021/05/20 05:16:56;;;;;;;14.10;9.85;;;11.90;99.20;;;;;;4990350;28;20046;-74
2021/05/20 05:19:22;;;;;;;16.88;10.50;;;11.90;99.10;;;;;;4989528;28;20121;-71
2021/05/20 05:21:47;;;;;;;17.92;10.52;;;11.90;99.30;;;;;;5005043;28;20130;-72
2021/05/20 05:24:13;;;;;;;16.48;10.38;;;11.90;99.20;;;;;;4989344;28;20027;-71
2021/05/20 05:26:39;;;;;;;16.30;10.75;;;11.70;99.20;;;;;;4991179;28;20361;-71
2021/05/20 05:29:05;;;;;;;15.85;11.05;;;11.80;99.40;;;;;;5004919;28;20376;-71
2021/05/20 05:31:32;;;;;;;29.73;15.63;;;11.70;99.40;;;;;;4989948;28;20511;-72
2021/05/20 05:33:58;;;;;;;16.90;11.13;;;11.80;99.50;;;;;;4989662;28;20038;-71
2021/05/20 05:36:25;;;;;;;17.30;10.85;;;11.90;99.40;;;;;;4989241;28;20684;-71
2021/05/20 05:38:51;;;;;;;19.73;11.68;;;12.00;99.40;;;;;;4991409;28;20054;-72
2021/05/20 05:41:17;;;;;;;19.13;12.02;;;12.10;99.30;;;;;;4989986;28;20176;-81
2021/05/20 05:43:43;;;;;;;19.08;12.30;;;12.30;99.40;;;;;;5005667;28;20066;-80
2021/05/20 05:46:09;;;;;;;19.23;11.70;;;12.40;99.20;;;;;;4990636;28;20038;-83
2021/05/20 05:48:34;;;;;;;18.58;12.57;;;12.40;99.00;;;;;;4997435;28;20555;-82
2021/05/20 05:51:00;;;;;;;18.35;12.70;;;12.50;98.90;;;;;;4994079;28;20040;-81
2021/05/20 05:53:27;;;;;;;19.80;12.23;;;12.70;98.90;;;;;;5010874;28;20027;-83
2021/05/20 05:55:53;;;;;;;18.83;12.55;;;12.70;98.80;;;;;;4994422;28;20049;-81
2021/05/20 05:58:20;;;;;;;21.05;14.77;;;12.70;98.80;;;;;;4993901;28;20034;-82
2021/05/20 06:00:46;;;;;;;21.88;15.13;;;12.90;98.60;;;;;;5009097;28;20030;-78
2021/05/20 06:03:14;;;;;;;23.25;14.07;;;12.90;98.70;;;;;;5008847;28;20547;-79
2021/05/20 06:05:39;;;;;;;19.33;14.20;;;13.00;98.50;;;;;;5011553;28;20080;-82
2021/05/20 06:08:05;;;;;;;21.38;13.70;;;12.90;98.60;;;;;;5008717;28;20419;-77
2021/05/20 06:10:31;;;;;;;22.45;14.75;;;12.90;98.70;;;;;;4993665;28;20423;-78
2021/05/20 06:12:57;;;;;;;24.05;16.10;;;13.10;98.40;;;;;;4993316;28;20038;-77
2021/05/20 06:15:23;;;;;;;23.83;16.90;;;13.30;98.20;;;;;;4992750;28;20508;-76
2021/05/20 06:17:48;;;;;;;25.65;17.58;;;13.40;98.00;;;;;;4994567;28;20475;-76
2021/05/20 06:20:14;;;;;;;28.50;19.65;;;13.60;97.90;;;;;;4992914;28;20041;-81
2021/05/20 06:22:40;;;;;;;29.40;22.48;;;13.70;97.60;;;;;;4993188;28;20046;-77
2021/05/20 06:25:06;;;;;;;31.48;22.58;;;13.80;97.50;;;;;;4992425;28;20165;-80
2021/05/20 06:27:32;;;;;;;34.05;23.50;;;13.90;97.50;;;;;;4992475;28;20360;-79
2021/05/20 06:29:57;;;;;;;43.20;25.65;;;14.00;97.30;;;;;;5008729;28;20026;-77
2021/05/20 06:32:24;;;;;;;46.30;25.98;;;14.00;97.20;;;;;;5010061;28;20080;-78
2021/05/20 06:34:50;;;;;;;39.58;25.55;;;14.00;97.10;;;;;;4994174;28;20097;-79
2021/05/20 06:37:16;;;;;;;36.03;23.88;;;14.10;97.00;;;;;;5008206;28;20081;-78
2021/05/20 06:39:42;;;;;;;32.60;22.02;;;14.10;97.00;;;;;;4993153;28;20049;-77
2021/05/20 06:42:14;;;;;;;35.55;22.73;;;14.20;96.90;;;;;;4993335;28;20022;-79
2021/05/20 06:44:46;;;;;;;30.25;20.42;;;14.30;96.80;;;;;;4994526;28;20186;-80
2021/05/20 06:47:12;;;;;;;33.28;19.83;;;14.20;96.40;;;;;;4999111;28;20030;-77
2021/05/20 06:49:37;;;;;;;33.35;20.90;;;14.00;96.30;;;;;;5011963;28;20431;-78
2021/05/20 06:52:03;;;;;;;24.20;15.98;;;14.10;96.50;;;;;;5011907;28;20407;-77
2021/05/20 06:54:29;;;;;;;20.30;15.38;;;13.90;96.30;;;;;;5011544;28;20081;-79
2021/05/20 06:56:58;;;;;;;25.58;17.88;;;14.10;96.50;;;;;;5028841;28;20034;-76
2021/05/20 07:02:08;;;;;;;25.73;18.52;;;14.20;96.30;;;;;;5012303;28;20077;-76
2021/05/20 07:04:34;;;;;;;24.05;16.13;;;14.60;96.40;;;;;;5011795;28;20038;-76
2021/05/20 07:07:03;;;;;;;23.10;15.43;;;14.70;95.80;;;;;;5011453;28;20037;-76
2021/05/20 07:09:33;;;;;;;21.08;15.70;;;14.80;95.80;;;;;;5011142;28;20033;-76
2021/05/20 07:11:59;;;;;;;19.95;12.65;;;15.00;95.40;;;;;;5011465;28;20096;-77
2021/05/20 07:14:25;;;;;;;20.02;12.73;;;15.00;94.90;;;;;;5013170;28;20432;-74
2021/05/20 07:16:52;;;;;;;24.08;13.15;;;15.30;94.80;;;;;;5011909;28;20425;-76
2021/05/20 07:19:19;;;;;;;14.43;11.23;;;15.50;94.20;;;;;;5027492;28;20361;-77
2021/05/20 07:21:45;;;;;;;15.93;10.93;;;15.80;94.10;;;;;;5009193;28;20117;-78
2021/05/20 07:24:10;;;;;;;17.70;11.65;;;16.20;93.70;;;;;;5010105;28;20579;-77
2021/05/20 07:26:40;;;;;;;18.58;11.57;;;16.50;93.30;;;;;;5028764;28;20026;-77
2021/05/20 07:29:06;;;;;;;7.75;6.47;;;16.60;92.70;;;;;;5025566;28;20046;-77
2021/05/20 07:31:32;;;;;;;11.07;8.68;;;16.30;91.70;;;;;;5011377;28;20045;-77
2021/05/20 07:33:58;;;;;;;12.93;8.40;;;16.30;91.40;;;;;;5011761;28;20096;-77
2021/05/20 07:36:24;;;;;;;10.82;8.63;;;16.60;91.30;;;;;;5011311;28;20046;-81
2021/05/20 07:38:50;;;;;;;14.07;8.18;;;16.60;90.90;;;;;;5028473;28;20025;-77
2021/05/20 07:41:16;;;;;;;15.60;8.73;;;16.90;91.40;;;;;;5010110;28;20448;-80
2021/05/20 07:43:43;;;;;;;13.63;8.40;;;17.30;91.10;;;;;;5011519;28;20117;-80
2021/05/20 07:46:09;;;;;;;11.30;7.30;;;17.70;90.50;;;;;;5010676;28;20507;-76
2021/05/20 07:48:35;;;;;;;8.88;7.07;;;18.30;89.90;;;;;;5011453;28;20050;-75
2021/05/20 07:51:03;;;;;;;12.23;7.78;;;18.40;87.00;;;;;;5010763;28;20040;-75
2021/05/20 07:53:28;;;;;;;12.63;7.63;;;18.90;87.60;;;;;;5011450;28;20051;-75
2021/05/20 07:55:54;;;;;;;11.55;7.85;;;19.60;86.70;;;;;;5011074;28;20042;-74
2021/05/20 07:58:20;;;;;;;9.52;6.68;;;20.30;83.30;;;;;;5010850;28;20114;-74
2021/05/20 08:00:46;;;;;;;16.05;8.02;;;21.20;83.10;;;;;;5010892;28;20129;-75
2021/05/20 08:11:07;;;;;;;13.82;7.28;;;23.70;69.10;;;;;;5009032;28;20030;-75
2021/05/20 08:13:34;;;;;;;11.35;7.50;;;24.20;64.30;;;;;;5010400;28;20033;-75
2021/05/20 08:16:01;;;;;;;7.43;5.90;;;25.20;61.30;;;;;;5010424;28;20034;-76
2021/05/20 08:18:27;;;;;;;9.52;5.35;;;24.20;60.30;;;;;;5010399;28;20029;-79
2021/05/20 08:20:53;;;;;;;7.38;5.45;;;24.90;60.30;;;;;;5011868;28;20018;-80
2021/05/20 08:23:19;;;;;;;7.85;4.90;;;24.40;59.50;;;;;;5025661;28;20111;-80
2021/05/20 08:25:45;;;;;;;7.85;5.15;;;25.20;57.70;;;;;;5010165;28;20065;-79
2021/05/20 08:28:10;;;;;;;9.15;5.80;;;25.50;57.40;;;;;;5010415;28;20399;-78
2021/05/20 08:30:36;;;;;;;7.45;4.38;;;26.30;54.90;;;;;;5010579;28;20034;-77
2021/05/20 08:33:02;;;;;;;7.60;4.38;;;25.20;54.20;;;;;;5009635;28;20025;-76
2021/05/20 08:35:31;;;;;;;12.93;4.68;;;25.20;53.70;;;;;;5011829;28;20083;-80
2021/05/20 08:37:56;;;;;;;8.75;4.82;;;25.20;53.40;;;;;;5009461;28;20460;-81
2021/05/20 08:40:22;;;;;;;9.90;5.07;;;24.40;54.20;;;;;;5008190;28;20052;-78
2021/05/20 08:42:48;;;;;;;6.20;4.40;;;24.00;55.40;;;;;;5010506;28;20376;-77
2021/05/20 08:45:20;;;;;;;9.68;4.25;;;23.70;54.60;;;;;;5008922;28;20448;-77
2021/05/20 08:47:49;;;;;;;7.50;4.60;;;24.10;55.00;;;;;;5011763;28;20030;-75
2021/05/20 08:50:17;;;;;;;9.02;4.60;;;24.40;54.30;;;;;;5010230;28;20100;-77
2021/05/20 08:52:43;;;;;;;5.82;4.53;;;23.60;54.50;;;;;;5009878;28;20484;-76
2021/05/20 08:55:15;;;;;;;10.73;5.22;;;23.50;54.50;;;;;;5011170;28;20046;-78
2021/05/20 08:57:44;;;;;;;8.95;5.18;;;23.90;54.90;;;;;;5010249;28;20038;-78
2021/05/20 09:00:13;;;;;;;7.38;4.97;;;24.30;54.70;;;;;;5009515;28;20041;-77
2021/05/20 09:02:39;;;;;;;8.95;5.00;;;24.30;54.50;;;;;;5011784;28;20076;-79
2021/05/20 09:05:17;;;;;;;7.93;5.05;;;23.90;54.60;;;;;;5010160;28;20038;-76
2021/05/20 09:07:51;;;;;;;9.05;4.35;;;23.30;54.30;;;;;;5008809;28;20042;-78
2021/05/20 09:10:21;;;;;;;9.35;4.70;;;22.80;54.20;;;;;;5009738;28;20464;-79
2021/05/20 09:13:20;;;;;;;9.60;4.55;;;23.60;55.90;;;;;;5009676;28;20052;-78
2021/05/20 09:15:49;;;;;;;8.55;4.20;;;23.90;54.40;;;;;;5009147;28;20076;-77
2021/05/20 09:18:24;;;;;;;4.68;3.35;;;24.40;53.30;;;;;;5009692;28;20589;-78
2021/05/20 09:20:51;;;;;;;6.45;4.05;;;23.80;52.00;;;;;;5011034;28;20479;-75
2021/05/20 09:23:19;;;;;;;6.32;4.20;;;23.30;51.90;;;;;;5009669;28;20042;-76
2021/05/20 09:25:47;;;;;;;5.82;4.03;;;22.90;52.70;;;;;;5008813;28;20165;-76
2021/05/20 09:28:15;;;;;;;5.53;4.30;;;22.60;54.50;;;;;;5009601;28;20049;-78
2021/05/20 09:30:43;;;;;;;6.93;4.53;;;22.60;54.50;;;;;;5009450;28;20101;-76
2021/05/20 09:33:11;;;;;;;5.10;3.60;;;22.00;54.50;;;;;;5004979;28;20018;-80
2021/05/20 09:35:50;;;;;;;7.65;4.40;;;22.00;54.80;;;;;;5011501;28;20030;-78
2021/05/20 09:38:23;;;;;;;6.32;4.88;;;22.20;54.50;;;;;;5010074;28;20459;-78
2021/05/20 09:41:00;;;;;;;7.25;3.92;;;21.70;54.80;;;;;;5009515;28;20137;-78
2021/05/20 09:43:34;;;;;;;8.65;4.53;;;21.50;55.10;;;;;;5008457;28;20044;-79
2021/05/20 09:46:15;;;;;;;5.22;4.10;;;21.60;55.30;;;;;;5009422;28;20041;-79
2021/05/20 09:48:42;;;;;;;6.50;3.90;;;21.20;55.60;;;;;;5007481;28;20077;-79
2021/05/20 09:51:28;;;;;;;9.25;4.80;;;21.40;56.10;;;;;;5010062;28;20022;-79
2021/05/20 09:53:54;;;;;;;6.90;4.40;;;21.30;55.10;;;;;;5010661;28;20611;-78
2021/05/20 09:56:41;;;;;;;7.75;4.50;;;21.00;56.50;;;;;;5025077;28;20038;-80
2021/05/20 09:59:15;;;;;;;8.02;4.90;;;20.60;57.30;;;;;;5009841;28;20045;-81
2021/05/20 10:01:42;;;;;;;9.07;5.60;;;20.20;58.10;;;;;;5009955;28;20064;-80
2021/05/20 10:04:09;;;;;;;8.33;5.20;;;19.90;59.10;;;;;;5009874;28;20501;-80
2021/05/20 10:06:38;;;;;;;9.20;5.88;;;19.70;59.90;;;;;;5009471;28;20038;-81
2021/05/20 10:09:06;;;;;;;8.13;5.22;;;19.60;60.80;;;;;;5009798;28;20026;-81
2021/05/20 10:11:35;;;;;;;10.10;4.53;;;19.60;61.90;;;;;;5011065;28;20025;-80
2021/05/20 10:14:05;;;;;;;10.60;4.63;;;19.70;59.80;;;;;;5010082;28;20591;-79
2021/05/20 10:16:34;;;;;;;6.97;4.10;;;20.00;59.60;;;;;;5008775;28;20038;-79
2021/05/20 10:19:00;;;;;;;6.15;3.92;;;19.40;58.30;;;;;;5009662;28;20053;-78
2021/05/20 10:21:28;;;;;;;8.82;4.00;;;19.70;59.00;;;;;;5009139;28;20026;-82
2021/05/20 10:23:54;;;;;;;6.30;3.58;;;19.70;59.30;;;;;;5010877;28;20038;-78
2021/05/20 10:26:21;;;;;;;9.30;4.38;;;19.60;60.30;;;;;;5008980;28;20057;-78
2021/05/20 10:28:47;;;;;;;6.13;4.38;;;19.30;59.30;;;;;;5010266;28;20472;-78
2021/05/20 10:31:15;;;;;;;5.57;4.15;;;19.60;59.90;;;;;;5010422;28;20038;-77
2021/05/20 10:33:43;;;;;;;8.07;3.60;;;19.60;60.30;;;;;;5010897;28;20065;-78
2021/05/20 10:36:26;;;;;;;8.82;4.85;;;19.80;58.60;;;;;;5013013;28;20529;-79
2021/05/20 10:38:53;;;;;;;7.75;4.30;;;19.70;58.90;;;;;;5014435;28;20071;-78
2021/05/20 10:41:26;;;;;;;7.53;4.55;;;19.40;59.20;;;;;;5012647;28;20030;-78
2021/05/20 10:44:08;;;;;;;13.10;6.20;;;19.50;59.80;;;;;;5011393;28;20046;-77
2021/05/20 10:47:01;;;;;;;5.57;4.03;;;19.40;61.20;;;;;;5011238;28;20511;-76
2021/05/20 10:49:45;;;;;;;5.57;3.40;;;19.50;60.10;;;;;;5012395;28;20574;-75
2021/05/20 10:52:39;;;;;;;4.22;2.25;;;19.30;58.90;;;;;;5011100;28;20103;-78
2021/05/20 10:55:13;;;;;;;2.20;1.40;;;19.20;56.50;;;;;;5012120;28;20134;-76
2021/05/20 10:57:58;;;;;;;0.90;0.80;;;18.80;54.60;;;;;;5011798;28;20068;-80
2021/05/20 11:00:40;;;;;;;2.38;1.15;;;18.50;55.00;;;;;;5012005;28;20026;-76
2021/05/20 11:03:10;;;;;;;2.72;1.23;;;18.20;55.20;;;;;;5012232;28;20044;-81
2021/05/20 11:05:42;;;;;;;4.32;1.60;;;18.00;56.40;;;;;;5013449;28;20038;-78
2021/05/20 11:08:28;;;;;;;1.85;1.42;;;17.80;57.50;;;;;;5010856;28;20041;-77
2021/05/20 11:10:55;;;;;;;3.60;1.42;;;17.80;57.80;;;;;;5012890;28;20053;-77
2021/05/20 11:13:44;;;;;;;4.20;1.70;;;17.70;58.60;;;;;;5012249;28;20034;-79
2021/05/20 11:16:30;;;;;;;3.58;1.85;;;17.60;58.60;;;;;;5012496;28;20026;-80
2021/05/20 11:19:22;;;;;;;2.72;1.60;;;17.80;58.70;;;;;;5011090;28;20125;-77
2021/05/20 11:22:07;;;;;;;2.05;1.25;;;17.50;58.60;;;;;;5011661;28;20427;-78
2021/05/20 11:24:35;;;;;;;3.97;1.33;;;17.50;57.90;;;;;;5011949;28;20075;-77
2021/05/20 11:27:09;;;;;;;14.43;2.30;;;17.40;57.80;;;;;;5012068;28;20120;-77
2021/05/20 11:29:36;;;;;;;1.13;0.88;;;17.30;57.90;;;;;;5013350;28;20037;-77
2021/05/20 11:32:29;;;;;;;1.40;0.80;;;17.20;57.20;;;;;;5011950;28;20034;-76
2021/05/20 11:35:17;;;;;;;15.13;7.43;;;17.10;57.60;;;;;;5011501;28;20038;-79
2021/05/20 11:37:43;;;;;;;4.22;2.40;;;17.40;56.80;;;;;;5011028;28;20092;-80
2021/05/20 11:40:28;;;;;;;0.73;0.73;;;17.60;56.70;;;;;;5012420;28;20054;-78
2021/05/20 11:42:55;;;;;;;5.70;1.10;;;17.80;56.90;;;;;;5012524;28;20420;-80
2021/05/20 11:45:30;;;;;;;4.18;1.35;;;18.00;56.70;;;;;;5010459;28;20038;-81
2021/05/20 11:47:58;;;;;;;4.03;1.50;;;18.10;56.60;;;;;;5031166;28;20030;-79
2021/05/20 11:50:25;;;;;;;6.00;3.50;;;18.10;57.20;;;;;;5031605;28;20075;-79
2021/05/20 11:52:55;;;;;;;5.15;3.03;;;18.30;58.40;;;;;;5030848;28;20503;-81
2021/05/20 11:55:22;;;;;;;6.07;3.05;;;18.40;58.80;;;;;;5046676;28;20029;-81
2021/05/20 11:57:59;;;;;;;7.80;3.03;;;18.40;59.10;;;;;;5030326;28;20038;-82
2021/05/20 12:00:25;;;;;;;5.18;3.20;;;18.50;59.10;;;;;;5031420;28;20029;-80
2021/05/20 12:02:54;;;;;;;4.55;3.10;;;18.70;60.00;;;;;;5033332;28;20021;-82
2021/05/20 12:05:22;;;;;;;8.27;3.45;;;18.90;59.70;;;;;;5031817;28;20037;-81
2021/05/20 12:07:48;;;;;;;7.97;5.40;;;19.10;59.80;;;;;;5031305;28;20038;-80
2021/05/20 12:10:20;;;;;;;4.80;2.95;;;19.00;59.40;;;;;;5031368;28;20389;-79
2021/05/20 12:12:59;;;;;;;4.53;2.72;;;19.10;58.60;;;;;;5030977;28;20045;-78
2021/05/20 12:15:26;;;;;;;5.65;3.00;;;19.10;58.20;;;;;;5030749;28;20033;-78
2021/05/20 12:17:55;;;;;;;4.05;2.40;;;19.30;58.10;;;;;;5032882;28;20021;-81
2021/05/20 12:20:21;;;;;;;5.13;2.35;;;19.40;57.50;;;;;;5031204;28;20037;-79
2021/05/20 12:22:48;;;;;;;5.22;2.28;;;19.40;56.60;;;;;;5030386;28;20068;-81
2021/05/20 12:25:19;;;;;;;4.60;2.10;;;19.20;55.90;;;;;;5030024;28;20061;-77
2021/05/20 12:27:46;;;;;;;8.70;2.38;;;19.10;56.50;;;;;;5030617;28;20040;-78
2021/05/20 12:30:26;;;;;;;5.15;2.97;;;19.20;57.40;;;;;;5029100;28;20079;-79
2021/05/20 12:32:54;;;;;;;5.03;2.95;;;19.10;57.70;;;;;;5031964;28;20087;-80
2021/05/20 12:35:21;;;;;;;9.85;2.30;;;19.00;57.30;;;;;;5045621;28;20120;-80
2021/05/20 12:38:07;;;;;;;6.93;2.20;;;18.90;56.60;;;;;;5030589;28;20041;-81
2021/05/20 12:40:35;;;;;;;4.38;2.40;;;19.10;56.70;;;;;;5030507;28;20271;-80
2021/05/20 12:43:06;;;;;;;5.90;2.70;;;19.00;56.10;;;;;;5029987;28;20095;-78
2021/05/20 12:45:34;;;;;;;7.07;2.55;;;19.00;54.80;;;;;;5030842;28;20361;-79
2021/05/20 12:48:00;;;;;;;5.68;2.20;;;19.00;55.90;;;;;;5030459;28;20033;-80
2021/05/20 12:50:27;;;;;;;5.90;2.85;;;19.20;56.50;;;;;;5033117;28;20033;-79
2021/05/20 12:52:55;;;;;;;6.70;3.70;;;19.10;57.00;;;;;;5045825;28;20044;-80
2021/05/20 12:55:33;;;;;;;4.63;2.72;;;19.10;57.50;;;;;;5030873;28;20091;-80
2021/05/20 12:58:02;;;;;;;5.38;2.50;;;19.10;57.50;;;;;;5029525;28;20041;-80
2021/05/20 13:00:29;;;;;;;6.75;4.22;;;19.20;56.70;;;;;;5030544;28;20083;-79
2021/05/20 13:02:59;;;;;;;4.95;2.75;;;19.20;56.50;;;;;;5030284;28;20021;-79
2021/05/20 13:05:27;;;;;;;5.03;2.78;;;19.10;55.70;;;;;;5031644;28;20055;-77